sensor_id;sensor_type;location;lat;lon;timestamp;P1;durP1;ratioP1;P2;durP2;ratioP2
22737;SDS011;11536;50.860;4.286;2024-01-16T00:01:59;9.55;;;2.55;;
22737;SDS011;11536;50.860;4.286;2024-01-16T00:04:24;9.48;;;2.03;;
22737;SDS011;11536;50.860;4.286;2024-01-16T00:06:51;10.35;;;2.22;;
22737;SDS011;11536;50.860;4.286;2024-01-16T00:09:17;7.88;;;2.00;;
22737;SDS011;11536;50.860;4.286;2024-01-16T00:11:43;5.85;;;2.30;;
22737;SDS011;11536;50.860;4.286;2024-01-16T00:14:09;6.78;;;2.22;;
22737;SDS011;11536;50.860;4.286;2024-01-16T00:16:42;7.47;;;2.38;;
22737;SDS011;11536;50.860;4.286;2024-01-16T00:19:09;9.10;;;2.22;;
22737;SDS011;11536;50.860;4.286;2024-01-16T00:21:38;7.13;;;1.92;;
22737;SDS011;11536;50.860;4.286;2024-01-16T00:24:04;6.00;;;1.90;;
22737;SDS011;11536;50.860;4.286;2024-01-16T00:26:30;9.00;;;2.22;;
22737;SDS011;11536;50.860;4.286;2024-01-16T00:28:55;9.02;;;2.10;;
22737;SDS011;11536;50.860;4.286;2024-01-16T00:31:21;6.45;;;1.70;;
22737;SDS011;11536;50.860;4.286;2024-01-16T00:33:47;8.52;;;2.05;;
22737;SDS011;11536;50.860;4.286;2024-01-16T00:36:13;10.70;;;2.17;;
22737;SDS011;11536;50.860;4.286;2024-01-16T00:38:38;10.50;;;2.45;;
22737;SDS011;11536;50.860;4.286;2024-01-16T00:41:04;12.68;;;2.03;;
22737;SDS011;11536;50.860;4.286;2024-01-16T00:43:29;11.30;;;2.45;;
22737;SDS011;11536;50.860;4.286;2024-01-16T00:45:55;6.93;;;2.00;;
22737;SDS011;11536;50.860;4.286;2024-01-16T00:48:20;9.70;;;2.30;;
22737;SDS011;11536;50.860;4.286;2024-01-16T00:50:46;7.35;;;2.20;;
22737;SDS011;11536;50.860;4.286;2024-01-16T00:53:15;6.90;;;2.35;;
22737;SDS011;11536;50.860;4.286;2024-01-16T00:55:41;9.75;;;2.40;;
22737;SDS011;11536;50.860;4.286;2024-01-16T00:58:06;16.38;;;2.70;;
22737;SDS011;11536;50.860;4.286;2024-01-16T01:00:32;11.20;;;2.97;;
22737;SDS011;11536;50.860;4.286;2024-01-16T01:03:00;6.32;;;2.28;;
22737;SDS011;11536;50.860;4.286;2024-01-16T01:05:25;8.52;;;2.63;;
22737;SDS011;11536;50.860;4.286;2024-01-16T01:07:56;7.97;;;1.88;;
22737;SDS011;11536;50.860;4.286;2024-01-16T01:10:22;7.50;;;2.08;;
22737;SDS011;11536;50.860;4.286;2024-01-16T01:12:48;5.32;;;1.70;;
22737;SDS011;11536;50.860;4.286;2024-01-16T01:15:14;9.00;;;2.90;;
22737;SDS011;11536;50.860;4.286;2024-01-16T01:17:40;10.05;;;2.33;;
22737;SDS011;11536;50.860;4.286;2024-01-16T01:20:06;8.25;;;2.60;;
22737;SDS011;11536;50.860;4.286;2024-01-16T01:22:37;8.77;;;2.72;;
22737;SDS011;11536;50.860;4.286;2024-01-16T01:25:03;13.90;;;3.22;;
22737;SDS011;11536;50.860;4.286;2024-01-16T01:27:29;9.30;;;2.75;;
22737;SDS011;11536;50.860;4.286;2024-01-16T01:29:54;9.02;;;2.33;;
22737;SDS011;11536;50.860;4.286;2024-01-16T01:32:20;12.20;;;2.70;;
22737;SDS011;11536;50.860;4.286;2024-01-16T01:34:46;6.22;;;2.40;;
22737;SDS011;11536;50.860;4.286;2024-01-16T01:37:12;8.43;;;2.25;;
22737;SDS011;11536;50.860;4.286;2024-01-16T01:39:38;9.95;;;3.13;;
22737;SDS011;11536;50.860;4.286;2024-01-16T01:42:03;7.57;;;2.42;;
22737;SDS011;11536;50.860;4.286;2024-01-16T01:44:29;7.35;;;2.50;;
22737;SDS011;11536;50.860;4.286;2024-01-16T01:46:54;7.53;;;2.25;;
22737;SDS011;11536;50.860;4.286;2024-01-16T01:49:21;10.13;;;2.95;;
22737;SDS011;11536;50.860;4.286;2024-01-16T01:51:48;7.93;;;3.00;;
22737;SDS011;11536;50.860;4.286;2024-01-16T01:54:15;8.35;;;2.72;;
22737;SDS011;11536;50.860;4.286;2024-01-16T01:56:45;9.43;;;2.90;;
22737;SDS011;11536;50.860;4.286;2024-01-16T01:59:12;6.60;;;2.20;;
22737;SDS011;11536;50.860;4.286;2024-01-16T02:01:39;12.73;;;2.60;;
22737;SDS011;11536;50.860;4.286;2024-01-16T02:04:06;12.25;;;2.95;;
22737;SDS011;11536;50.860;4.286;2024-01-16T02:06:32;10.82;;;2.53;;
22737;SDS011;11536;50.860;4.286;2024-01-16T02:08:58;14.75;;;3.03;;
22737;SDS011;11536;50.860;4.286;2024-01-16T02:11:24;9.32;;;3.00;;
22737;SDS011;11536;50.860;4.286;2024-01-16T02:13:50;11.00;;;2.63;;
22737;SDS011;11536;50.860;4.286;2024-01-16T02:16:22;7.63;;;2.75;;
22737;SDS011;11536;50.860;4.286;2024-01-16T02:18:49;6.35;;;2.20;;
22737;SDS011;11536;50.860;4.286;2024-01-16T02:21:17;10.63;;;3.00;;
22737;SDS011;11536;50.860;4.286;2024-01-16T02:23:46;9.18;;;3.05;;
22737;SDS011;11536;50.860;4.286;2024-01-16T02:26:12;11.20;;;2.63;;
22737;SDS011;11536;50.860;4.286;2024-01-16T02:28:40;11.70;;;2.83;;
22737;SDS011;11536;50.860;4.286;2024-01-16T02:31:07;11.48;;;3.08;;
22737;SDS011;11536;50.860;4.286;2024-01-16T02:33:33;6.80;;;2.40;;
22737;SDS011;11536;50.860;4.286;2024-01-16T02:35:58;5.85;;;2.40;;
22737;SDS011;11536;50.860;4.286;2024-01-16T02:38:24;11.63;;;1.90;;
22737;SDS011;11536;50.860;4.286;2024-01-16T02:40:50;6.93;;;2.40;;
22737;SDS011;11536;50.860;4.286;2024-01-16T02:43:16;11.45;;;2.53;;
22737;SDS011;11536;50.860;4.286;2024-01-16T02:45:41;5.60;;;2.00;;
22737;SDS011;11536;50.860;4.286;2024-01-16T02:48:07;6.30;;;2.10;;
22737;SDS011;11536;50.860;4.286;2024-01-16T02:50:33;9.93;;;2.72;;
22737;SDS011;11536;50.860;4.286;2024-01-16T02:52:59;6.90;;;2.40;;
22737;SDS011;11536;50.860;4.286;2024-01-16T02:55:24;6.68;;;2.72;;
22737;SDS011;11536;50.860;4.286;2024-01-16T02:57:50;8.85;;;2.72;;
22737;SDS011;11536;50.860;4.286;2024-01-16T03:00:15;13.63;;;2.88;;
22737;SDS011;11536;50.860;4.286;2024-01-16T03:02:42;7.88;;;2.85;;
22737;SDS011;11536;50.860;4.286;2024-01-16T03:05:09;9.00;;;3.05;;
22737;SDS011;11536;50.860;4.286;2024-01-16T03:07:35;5.97;;;2.97;;
22737;SDS011;11536;50.860;4.286;2024-01-16T03:10:01;10.82;;;3.05;;
22737;SDS011;11536;50.860;4.286;2024-01-16T03:12:27;10.32;;;2.70;;
22737;SDS011;11536;50.860;4.286;2024-01-16T03:14:52;7.47;;;2.70;;
22737;SDS011;11536;50.860;4.286;2024-01-16T03:17:18;12.43;;;3.38;;
22737;SDS011;11536;50.860;4.286;2024-01-16T03:19:44;9.82;;;2.92;;
22737;SDS011;11536;50.860;4.286;2024-01-16T03:22:09;9.48;;;2.55;;
22737;SDS011;11536;50.860;4.286;2024-01-16T03:24:35;9.18;;;3.10;;
22737;SDS011;11536;50.860;4.286;2024-01-16T03:27:01;9.85;;;3.30;;
22737;SDS011;11536;50.860;4.286;2024-01-16T03:29:27;10.35;;;3.45;;
22737;SDS011;11536;50.860;4.286;2024-01-16T03:31:52;12.43;;;3.35;;
22737;SDS011;11536;50.860;4.286;2024-01-16T03:34:18;10.95;;;3.72;;
22737;SDS011;11536;50.860;4.286;2024-01-16T03:36:44;16.45;;;3.65;;
22737;SDS011;11536;50.860;4.286;2024-01-16T03:39:09;12.52;;;3.90;;
22737;SDS011;11536;50.860;4.286;2024-01-16T03:41:36;10.75;;;3.38;;
22737;SDS011;11536;50.860;4.286;2024-01-16T03:44:02;9.45;;;3.20;;
22737;SDS011;11536;50.860;4.286;2024-01-16T03:46:28;11.40;;;3.47;;
22737;SDS011;11536;50.860;4.286;2024-01-16T03:48:54;11.70;;;3.20;;
22737;SDS011;11536;50.860;4.286;2024-01-16T03:51:19;9.65;;;3.15;;
22737;SDS011;11536;50.860;4.286;2024-01-16T03:53:45;10.30;;;2.90;;
22737;SDS011;11536;50.860;4.286;2024-01-16T03:56:11;7.25;;;3.10;;
22737;SDS011;11536;50.860;4.286;2024-01-16T03:58:37;10.20;;;3.45;;
22737;SDS011;11536;50.860;4.286;2024-01-16T04:01:03;8.07;;;2.85;;
22737;SDS011;11536;50.860;4.286;2024-01-16T04:03:28;7.07;;;2.50;;
22737;SDS011;11536;50.860;4.286;2024-01-16T04:05:54;8.38;;;2.72;;
22737;SDS011;11536;50.860;4.286;2024-01-16T04:08:20;8.07;;;2.67;;
22737;SDS011;11536;50.860;4.286;2024-01-16T04:10:45;7.75;;;2.45;;
22737;SDS011;11536;50.860;4.286;2024-01-16T04:13:11;9.95;;;3.17;;
22737;SDS011;11536;50.860;4.286;2024-01-16T04:15:40;8.40;;;2.60;;
22737;SDS011;11536;50.860;4.286;2024-01-16T04:18:06;8.40;;;2.50;;
22737;SDS011;11536;50.860;4.286;2024-01-16T04:20:31;6.72;;;2.92;;
22737;SDS011;11536;50.860;4.286;2024-01-16T04:22:57;7.60;;;3.55;;
22737;SDS011;11536;50.860;4.286;2024-01-16T04:25:23;10.23;;;3.35;;
22737;SDS011;11536;50.860;4.286;2024-01-16T04:27:49;10.65;;;3.42;;
22737;SDS011;11536;50.860;4.286;2024-01-16T04:30:14;9.68;;;2.70;;
22737;SDS011;11536;50.860;4.286;2024-01-16T04:32:40;10.13;;;3.03;;
22737;SDS011;11536;50.860;4.286;2024-01-16T04:35:06;10.90;;;3.33;;
22737;SDS011;11536;50.860;4.286;2024-01-16T04:37:32;8.10;;;3.45;;
22737;SDS011;11536;50.860;4.286;2024-01-16T04:39:58;8.55;;;3.45;;
22737;SDS011;11536;50.860;4.286;2024-01-16T04:42:24;10.80;;;3.03;;
22737;SDS011;11536;50.860;4.286;2024-01-16T04:44:50;12.20;;;3.70;;
22737;SDS011;11536;50.860;4.286;2024-01-16T04:47:15;8.20;;;3.38;;
22737;SDS011;11536;50.860;4.286;2024-01-16T04:49:41;15.18;;;3.97;;
22737;SDS011;11536;50.860;4.286;2024-01-16T04:52:07;9.90;;;3.95;;
22737;SDS011;11536;50.860;4.286;2024-01-16T04:54:33;8.98;;;3.55;;
22737;SDS011;11536;50.860;4.286;2024-01-16T04:56:59;11.93;;;3.78;;
22737;SDS011;11536;50.860;4.286;2024-01-16T04:59:24;9.98;;;3.80;;
22737;SDS011;11536;50.860;4.286;2024-01-16T05:01:50;11.77;;;4.03;;
22737;SDS011;11536;50.860;4.286;2024-01-16T05:04:16;12.00;;;4.35;;
22737;SDS011;11536;50.860;4.286;2024-01-16T05:06:42;12.30;;;3.45;;
22737;SDS011;11536;50.860;4.286;2024-01-16T05:09:07;9.07;;;3.80;;
22737;SDS011;11536;50.860;4.286;2024-01-16T05:11:34;9.13;;;3.13;;
22737;SDS011;11536;50.860;4.286;2024-01-16T05:14:00;7.30;;;3.10;;
22737;SDS011;11536;50.860;4.286;2024-01-16T05:16:26;7.47;;;3.17;;
22737;SDS011;11536;50.860;4.286;2024-01-16T05:18:52;10.13;;;3.17;;
22737;SDS011;11536;50.860;4.286;2024-01-16T05:21:20;13.40;;;3.42;;
22737;SDS011;11536;50.860;4.286;2024-01-16T05:23:46;8.32;;;3.45;;
22737;SDS011;11536;50.860;4.286;2024-01-16T05:26:12;15.55;;;3.55;;
22737;SDS011;11536;50.860;4.286;2024-01-16T05:28:38;11.63;;;4.00;;
22737;SDS011;11536;50.860;4.286;2024-01-16T05:31:05;14.98;;;5.18;;
22737;SDS011;11536;50.860;4.286;2024-01-16T05:33:30;12.05;;;4.13;;
22737;SDS011;11536;50.860;4.286;2024-01-16T05:35:57;14.93;;;4.18;;
22737;SDS011;11536;50.860;4.286;2024-01-16T05:38:23;12.93;;;4.45;;
22737;SDS011;11536;50.860;4.286;2024-01-16T05:40:48;10.20;;;4.40;;
22737;SDS011;11536;50.860;4.286;2024-01-16T05:43:14;13.15;;;3.95;;
22737;SDS011;11536;50.860;4.286;2024-01-16T05:45:39;15.68;;;5.10;;
22737;SDS011;11536;50.860;4.286;2024-01-16T05:48:05;11.63;;;3.42;;
22737;SDS011;11536;50.860;4.286;2024-01-16T05:50:34;12.07;;;3.78;;
22737;SDS011;11536;50.860;4.286;2024-01-16T05:53:01;10.25;;;4.25;;
22737;SDS011;11536;50.860;4.286;2024-01-16T05:55:27;15.10;;;4.15;;
22737;SDS011;11536;50.860;4.286;2024-01-16T05:57:54;12.75;;;3.63;;
22737;SDS011;11536;50.860;4.286;2024-01-16T06:00:19;13.38;;;3.88;;
22737;SDS011;11536;50.860;4.286;2024-01-16T06:02:47;10.50;;;3.20;;
22737;SDS011;11536;50.860;4.286;2024-01-16T06:05:13;11.10;;;3.63;;
22737;SDS011;11536;50.860;4.286;2024-01-16T06:07:39;9.43;;;2.60;;
22737;SDS011;11536;50.860;4.286;2024-01-16T06:10:05;9.68;;;3.40;;
22737;SDS011;11536;50.860;4.286;2024-01-16T06:12:31;13.43;;;3.83;;
22737;SDS011;11536;50.860;4.286;2024-01-16T06:14:57;12.05;;;3.70;;
22737;SDS011;11536;50.860;4.286;2024-01-16T06:17:23;12.50;;;3.65;;
22737;SDS011;11536;50.860;4.286;2024-01-16T06:19:48;11.18;;;3.35;;
22737;SDS011;11536;50.860;4.286;2024-01-16T06:22:14;12.32;;;3.33;;
22737;SDS011;11536;50.860;4.286;2024-01-16T06:24:40;13.50;;;4.10;;
22737;SDS011;11536;50.860;4.286;2024-01-16T06:27:05;10.68;;;3.58;;
22737;SDS011;11536;50.860;4.286;2024-01-16T06:29:31;8.18;;;3.25;;
22737;SDS011;11536;50.860;4.286;2024-01-16T06:31:57;12.30;;;3.38;;
22737;SDS011;11536;50.860;4.286;2024-01-16T06:34:22;14.15;;;4.82;;
22737;SDS011;11536;50.860;4.286;2024-01-16T06:36:48;10.18;;;3.83;;
22737;SDS011;11536;50.860;4.286;2024-01-16T06:39:14;11.10;;;3.13;;
22737;SDS011;11536;50.860;4.286;2024-01-16T06:41:42;12.43;;;3.47;;
22737;SDS011;11536;50.860;4.286;2024-01-16T06:44:07;10.18;;;3.30;;
22737;SDS011;11536;50.860;4.286;2024-01-16T06:46:37;13.80;;;4.05;;
22737;SDS011;11536;50.860;4.286;2024-01-16T06:49:05;10.40;;;3.03;;
22737;SDS011;11536;50.860;4.286;2024-01-16T06:51:31;9.95;;;3.13;;
22737;SDS011;11536;50.860;4.286;2024-01-16T06:53:57;12.63;;;3.50;;
22737;SDS011;11536;50.860;4.286;2024-01-16T06:56:22;13.20;;;3.97;;
22737;SDS011;11536;50.860;4.286;2024-01-16T06:58:49;15.10;;;4.40;;
22737;SDS011;11536;50.860;4.286;2024-01-16T07:01:15;7.38;;;2.90;;
22737;SDS011;11536;50.860;4.286;2024-01-16T07:03:40;14.82;;;3.95;;
22737;SDS011;11536;50.860;4.286;2024-01-16T07:06:06;12.45;;;3.78;;
22737;SDS011;11536;50.860;4.286;2024-01-16T07:08:31;11.20;;;3.45;;
22737;SDS011;11536;50.860;4.286;2024-01-16T07:10:58;10.50;;;3.50;;
22737;SDS011;11536;50.860;4.286;2024-01-16T07:13:23;10.48;;;3.45;;
22737;SDS011;11536;50.860;4.286;2024-01-16T07:15:49;13.50;;;3.58;;
22737;SDS011;11536;50.860;4.286;2024-01-16T07:18:14;11.13;;;3.67;;
22737;SDS011;11536;50.860;4.286;2024-01-16T07:20:40;9.65;;;3.15;;
22737;SDS011;11536;50.860;4.286;2024-01-16T07:23:06;12.95;;;4.05;;
22737;SDS011;11536;50.860;4.286;2024-01-16T07:25:32;12.90;;;3.78;;
22737;SDS011;11536;50.860;4.286;2024-01-16T07:27:57;7.32;;;3.10;;
22737;SDS011;11536;50.860;4.286;2024-01-16T07:30:23;10.00;;;3.53;;
22737;SDS011;11536;50.860;4.286;2024-01-16T07:32:49;9.98;;;3.97;;
22737;SDS011;11536;50.860;4.286;2024-01-16T07:35:19;10.88;;;4.07;;
22737;SDS011;11536;50.860;4.286;2024-01-16T07:37:44;11.80;;;3.85;;
22737;SDS011;11536;50.860;4.286;2024-01-16T07:40:10;10.02;;;3.42;;
22737;SDS011;11536;50.860;4.286;2024-01-16T07:42:37;9.82;;;3.40;;
22737;SDS011;11536;50.860;4.286;2024-01-16T07:45:03;12.25;;;3.55;;
22737;SDS011;11536;50.860;4.286;2024-01-16T07:47:32;10.38;;;3.88;;
22737;SDS011;11536;50.860;4.286;2024-01-16T07:49:59;13.23;;;4.15;;
22737;SDS011;11536;50.860;4.286;2024-01-16T07:52:26;14.27;;;4.38;;
22737;SDS011;11536;50.860;4.286;2024-01-16T07:54:52;8.52;;;3.45;;
22737;SDS011;11536;50.860;4.286;2024-01-16T07:57:18;9.88;;;4.10;;
22737;SDS011;11536;50.860;4.286;2024-01-16T07:59:44;9.88;;;3.22;;
22737;SDS011;11536;50.860;4.286;2024-01-16T08:02:09;11.27;;;3.42;;
22737;SDS011;11536;50.860;4.286;2024-01-16T08:04:35;11.70;;;4.43;;
22737;SDS011;11536;50.860;4.286;2024-01-16T08:07:01;13.52;;;3.67;;
22737;SDS011;11536;50.860;4.286;2024-01-16T08:09:27;7.93;;;3.28;;
22737;SDS011;11536;50.860;4.286;2024-01-16T08:11:52;9.40;;;3.50;;
22737;SDS011;11536;50.860;4.286;2024-01-16T08:14:18;10.93;;;3.60;;
22737;SDS011;11536;50.860;4.286;2024-01-16T08:16:43;13.57;;;3.63;;
22737;SDS011;11536;50.860;4.286;2024-01-16T08:19:09;10.18;;;3.72;;
22737;SDS011;11536;50.860;4.286;2024-01-16T08:21:35;10.18;;;3.75;;
22737;SDS011;11536;50.860;4.286;2024-01-16T08:24:01;10.07;;;3.60;;
22737;SDS011;11536;50.860;4.286;2024-01-16T08:26:27;12.25;;;3.20;;
22737;SDS011;11536;50.860;4.286;2024-01-16T08:28:53;11.10;;;3.15;;
22737;SDS011;11536;50.860;4.286;2024-01-16T08:31:19;10.98;;;3.03;;
22737;SDS011;11536;50.860;4.286;2024-01-16T08:33:45;11.48;;;3.67;;
22737;SDS011;11536;50.860;4.286;2024-01-16T08:36:10;10.07;;;3.72;;
22737;SDS011;11536;50.860;4.286;2024-01-16T08:38:36;9.63;;;3.38;;
22737;SDS011;11536;50.860;4.286;2024-01-16T08:41:02;13.00;;;3.85;;
22737;SDS011;11536;50.860;4.286;2024-01-16T08:43:31;9.43;;;3.40;;
22737;SDS011;11536;50.860;4.286;2024-01-16T08:45:58;9.18;;;3.58;;
22737;SDS011;11536;50.860;4.286;2024-01-16T08:48:24;8.65;;;3.17;;
22737;SDS011;11536;50.860;4.286;2024-01-16T08:50:49;11.82;;;3.38;;
22737;SDS011;11536;50.860;4.286;2024-01-16T08:53:15;11.50;;;3.58;;
22737;SDS011;11536;50.860;4.286;2024-01-16T08:55:40;9.73;;;3.50;;
22737;SDS011;11536;50.860;4.286;2024-01-16T08:58:06;8.98;;;3.53;;
22737;SDS011;11536;50.860;4.286;2024-01-16T09:00:31;8.80;;;3.33;;
22737;SDS011;11536;50.860;4.286;2024-01-16T09:02:58;10.23;;;2.83;;
22737;SDS011;11536;50.860;4.286;2024-01-16T09:05:24;9.57;;;3.05;;
22737;SDS011;11536;50.860;4.286;2024-01-16T09:07:51;8.93;;;3.30;;
22737;SDS011;11536;50.860;4.286;2024-01-16T09:10:17;8.60;;;3.13;;
22737;SDS011;11536;50.860;4.286;2024-01-16T09:12:43;8.35;;;2.78;;
22737;SDS011;11536;50.860;4.286;2024-01-16T09:15:09;13.50;;;3.33;;
22737;SDS011;11536;50.860;4.286;2024-01-16T09:17:35;10.77;;;3.60;;
22737;SDS011;11536;50.860;4.286;2024-01-16T09:20:00;11.32;;;3.22;;
22737;SDS011;11536;50.860;4.286;2024-01-16T09:22:26;8.45;;;2.90;;
22737;SDS011;11536;50.860;4.286;2024-01-16T09:24:52;11.55;;;3.50;;
22737;SDS011;11536;50.860;4.286;2024-01-16T09:27:18;11.52;;;3.05;;
22737;SDS011;11536;50.860;4.286;2024-01-16T09:29:44;6.88;;;2.50;;
22737;SDS011;11536;50.860;4.286;2024-01-16T09:32:10;8.85;;;3.28;;
22737;SDS011;11536;50.860;4.286;2024-01-16T09:34:35;9.98;;;3.53;;
22737;SDS011;11536;50.860;4.286;2024-01-16T09:37:01;8.73;;;3.13;;
22737;SDS011;11536;50.860;4.286;2024-01-16T09:39:27;8.55;;;2.90;;
22737;SDS011;11536;50.860;4.286;2024-01-16T09:41:55;9.48;;;3.08;;
22737;SDS011;11536;50.860;4.286;2024-01-16T09:44:25;7.18;;;2.50;;
22737;SDS011;11536;50.860;4.286;2024-01-16T09:46:50;10.57;;;3.00;;
22737;SDS011;11536;50.860;4.286;2024-01-16T09:49:19;10.13;;;2.65;;
22737;SDS011;11536;50.860;4.286;2024-01-16T09:51:45;9.68;;;3.28;;
22737;SDS011;11536;50.860;4.286;2024-01-16T09:54:11;10.45;;;3.42;;
22737;SDS011;11536;50.860;4.286;2024-01-16T09:56:41;11.23;;;3.05;;
22737;SDS011;11536;50.860;4.286;2024-01-16T09:59:08;10.30;;;3.25;;
22737;SDS011;11536;50.860;4.286;2024-01-16T10:01:35;8.27;;;2.95;;
22737;SDS011;11536;50.860;4.286;2024-01-16T10:04:02;13.00;;;3.22;;
22737;SDS011;11536;50.860;4.286;2024-01-16T10:06:27;7.80;;;3.03;;
22737;SDS011;11536;50.860;4.286;2024-01-16T10:08:56;9.15;;;3.10;;
22737;SDS011;11536;50.860;4.286;2024-01-16T10:11:22;9.10;;;2.55;;
22737;SDS011;11536;50.860;4.286;2024-01-16T10:13:48;10.02;;;3.00;;
22737;SDS011;11536;50.860;4.286;2024-01-16T10:16:13;13.65;;;2.92;;
22737;SDS011;11536;50.860;4.286;2024-01-16T10:18:39;7.70;;;2.95;;
22737;SDS011;11536;50.860;4.286;2024-01-16T10:21:05;9.18;;;2.95;;
22737;SDS011;11536;50.860;4.286;2024-01-16T10:23:48;8.73;;;2.70;;
22737;SDS011;11536;50.860;4.286;2024-01-16T10:26:14;9.40;;;3.05;;
22737;SDS011;11536;50.860;4.286;2024-01-16T10:28:41;6.80;;;3.13;;
22737;SDS011;11536;50.860;4.286;2024-01-16T10:31:08;11.75;;;2.70;;
22737;SDS011;11536;50.860;4.286;2024-01-16T10:33:34;10.45;;;2.50;;
22737;SDS011;11536;50.860;4.286;2024-01-16T10:38:37;8.52;;;2.22;;
22737;SDS011;11536;50.860;4.286;2024-01-16T10:41:11;7.93;;;2.50;;
22737;SDS011;11536;50.860;4.286;2024-01-16T10:43:42;10.73;;;2.95;;
22737;SDS011;11536;50.860;4.286;2024-01-16T10:46:14;10.23;;;2.35;;
22737;SDS011;11536;50.860;4.286;2024-01-16T10:48:42;6.72;;;2.35;;
22737;SDS011;11536;50.860;4.286;2024-01-16T10:51:10;7.63;;;2.45;;
22737;SDS011;11536;50.860;4.286;2024-01-16T10:53:43;7.38;;;2.67;;
22737;SDS011;11536;50.860;4.286;2024-01-16T10:56:12;8.73;;;2.50;;
22737;SDS011;11536;50.860;4.286;2024-01-16T10:58:40;9.25;;;2.75;;
22737;SDS011;11536;50.860;4.286;2024-01-16T11:01:10;7.90;;;2.42;;
22737;SDS011;11536;50.860;4.286;2024-01-16T11:03:49;9.80;;;2.40;;
22737;SDS011;11536;50.860;4.286;2024-01-16T11:06:16;7.65;;;2.45;;
22737;SDS011;11536;50.860;4.286;2024-01-16T11:08:44;6.40;;;2.40;;
22737;SDS011;11536;50.860;4.286;2024-01-16T11:11:11;9.25;;;2.15;;
22737;SDS011;11536;50.860;4.286;2024-01-16T11:13:46;8.85;;;2.17;;
22737;SDS011;11536;50.860;4.286;2024-01-16T11:16:12;6.78;;;2.50;;
22737;SDS011;11536;50.860;4.286;2024-01-16T11:18:37;8.27;;;2.38;;
22737;SDS011;11536;50.860;4.286;2024-01-16T11:21:05;10.77;;;2.47;;
22737;SDS011;11536;50.860;4.286;2024-01-16T11:23:32;7.97;;;2.50;;
22737;SDS011;11536;50.860;4.286;2024-01-16T11:26:00;6.88;;;2.10;;
22737;SDS011;11536;50.860;4.286;2024-01-16T11:28:45;9.27;;;2.40;;
22737;SDS011;11536;50.860;4.286;2024-01-16T11:34:09;6.68;;;2.10;;
22737;SDS011;11536;50.860;4.286;2024-01-16T11:36:53;8.73;;;2.58;;
22737;SDS011;11536;50.860;4.286;2024-01-16T11:39:20;8.35;;;2.33;;
22737;SDS011;11536;50.860;4.286;2024-01-16T11:41:51;9.18;;;2.78;;
22737;SDS011;11536;50.860;4.286;2024-01-16T11:44:36;7.75;;;2.35;;
22737;SDS011;11536;50.860;4.286;2024-01-16T11:47:05;7.35;;;2.60;;
22737;SDS011;11536;50.860;4.286;2024-01-16T11:49:31;6.20;;;2.05;;
22737;SDS011;11536;50.860;4.286;2024-01-16T11:52:00;8.32;;;2.38;;
22737;SDS011;11536;50.860;4.286;2024-01-16T11:54:25;5.55;;;2.30;;
22737;SDS011;11536;50.860;4.286;2024-01-16T11:59:59;6.95;;;2.30;;
22737;SDS011;11536;50.860;4.286;2024-01-16T12:02:33;9.05;;;2.30;;
22737;SDS011;11536;50.860;4.286;2024-01-16T12:05:10;6.38;;;2.25;;
22737;SDS011;11536;50.860;4.286;2024-01-16T12:07:45;10.27;;;2.95;;
22737;SDS011;11536;50.860;4.286;2024-01-16T12:10:16;7.68;;;2.42;;
22737;SDS011;11536;50.860;4.286;2024-01-16T12:12:42;9.85;;;2.50;;
22737;SDS011;11536;50.860;4.286;2024-01-16T12:15:18;8.43;;;2.50;;
22737;SDS011;11536;50.860;4.286;2024-01-16T12:20:20;9.05;;;2.42;;
22737;SDS011;11536;50.860;4.286;2024-01-16T12:23:20;13.95;;;3.00;;
22737;SDS011;11536;50.860;4.286;2024-01-16T12:25:39;7.10;;;2.85;;
22737;SDS011;11536;50.860;4.286;2024-01-16T12:30:52;8.80;;;2.83;;
22737;SDS011;11536;50.860;4.286;2024-01-16T12:33:20;5.45;;;2.40;;
22737;SDS011;11536;50.860;4.286;2024-01-16T12:35:47;7.15;;;2.83;;
22737;SDS011;11536;50.860;4.286;2024-01-16T12:38:14;9.02;;;2.75;;
22737;SDS011;11536;50.860;4.286;2024-01-16T12:43:11;8.15;;;2.65;;
22737;SDS011;11536;50.860;4.286;2024-01-16T12:45:37;5.85;;;2.22;;
22737;SDS011;11536;50.860;4.286;2024-01-16T12:48:03;6.60;;;2.20;;
22737;SDS011;11536;50.860;4.286;2024-01-16T12:50:29;8.57;;;2.47;;
22737;SDS011;11536;50.860;4.286;2024-01-16T12:55:32;6.05;;;2.10;;
22737;SDS011;11536;50.860;4.286;2024-01-16T13:00:37;5.95;;;2.28;;
22737;SDS011;11536;50.860;4.286;2024-01-16T13:03:04;4.80;;;1.73;;
22737;SDS011;11536;50.860;4.286;2024-01-16T13:05:30;6.05;;;2.00;;
22737;SDS011;11536;50.860;4.286;2024-01-16T13:08:02;10.55;;;2.17;;
22737;SDS011;11536;50.860;4.286;2024-01-16T13:10:28;7.38;;;1.75;;
22737;SDS011;11536;50.860;4.286;2024-01-16T13:15:41;6.05;;;2.40;;
22737;SDS011;11536;50.860;4.286;2024-01-16T13:18:17;6.18;;;2.10;;
22737;SDS011;11536;50.860;4.286;2024-01-16T13:20:46;7.00;;;1.73;;
22737;SDS011;11536;50.860;4.286;2024-01-16T13:23:15;6.78;;;2.28;;
22737;SDS011;11536;50.860;4.286;2024-01-16T13:25:45;7.85;;;2.60;;
22737;SDS011;11536;50.860;4.286;2024-01-16T13:28:12;7.90;;;2.13;;
22737;SDS011;11536;50.860;4.286;2024-01-16T13:30:39;4.90;;;2.05;;
22737;SDS011;11536;50.860;4.286;2024-01-16T13:33:05;7.57;;;1.85;;
22737;SDS011;11536;50.860;4.286;2024-01-16T13:35:31;8.63;;;2.17;;
22737;SDS011;11536;50.860;4.286;2024-01-16T13:37:58;10.32;;;1.70;;
22737;SDS011;11536;50.860;4.286;2024-01-16T13:40:24;7.38;;;2.03;;
22737;SDS011;11536;50.860;4.286;2024-01-16T13:42:49;7.22;;;2.28;;
22737;SDS011;11536;50.860;4.286;2024-01-16T13:45:15;8.50;;;2.53;;
22737;SDS011;11536;50.860;4.286;2024-01-16T13:47:43;5.43;;;1.90;;
22737;SDS011;11536;50.860;4.286;2024-01-16T13:50:09;7.25;;;1.77;;
22737;SDS011;11536;50.860;4.286;2024-01-16T13:52:37;6.38;;;1.95;;
22737;SDS011;11536;50.860;4.286;2024-01-16T13:55:05;5.88;;;2.03;;
22737;SDS011;11536;50.860;4.286;2024-01-16T13:57:31;7.55;;;2.22;;
22737;SDS011;11536;50.860;4.286;2024-01-16T13:59:57;7.72;;;2.13;;
22737;SDS011;11536;50.860;4.286;2024-01-16T14:02:23;6.80;;;2.42;;
22737;SDS011;11536;50.860;4.286;2024-01-16T14:04:49;9.35;;;2.17;;
22737;SDS011;11536;50.860;4.286;2024-01-16T14:07:16;5.38;;;1.83;;
22737;SDS011;11536;50.860;4.286;2024-01-16T14:09:41;4.70;;;1.48;;
22737;SDS011;11536;50.860;4.286;2024-01-16T14:12:07;5.05;;;1.80;;
22737;SDS011;11536;50.860;4.286;2024-01-16T14:14:33;5.38;;;1.85;;
22737;SDS011;11536;50.860;4.286;2024-01-16T14:17:00;9.63;;;2.33;;
22737;SDS011;11536;50.860;4.286;2024-01-16T14:19:26;6.65;;;2.15;;
22737;SDS011;11536;50.860;4.286;2024-01-16T14:21:54;8.00;;;1.50;;
22737;SDS011;11536;50.860;4.286;2024-01-16T14:24:20;6.68;;;1.77;;
22737;SDS011;11536;50.860;4.286;2024-01-16T14:26:46;6.10;;;1.75;;
22737;SDS011;11536;50.860;4.286;2024-01-16T14:29:12;6.72;;;2.03;;
22737;SDS011;11536;50.860;4.286;2024-01-16T14:31:38;7.40;;;2.28;;
22737;SDS011;11536;50.860;4.286;2024-01-16T14:34:09;5.50;;;1.92;;
22737;SDS011;11536;50.860;4.286;2024-01-16T14:36:36;3.60;;;1.65;;
22737;SDS011;11536;50.860;4.286;2024-01-16T14:39:01;5.63;;;1.52;;
22737;SDS011;11536;50.860;4.286;2024-01-16T14:41:27;6.78;;;1.80;;
22737;SDS011;11536;50.860;4.286;2024-01-16T14:43:52;7.05;;;2.00;;
22737;SDS011;11536;50.860;4.286;2024-01-16T14:46:19;8.20;;;1.88;;
22737;SDS011;11536;50.860;4.286;2024-01-16T14:48:45;6.32;;;1.98;;
22737;SDS011;11536;50.860;4.286;2024-01-16T14:51:11;9.52;;;2.13;;
22737;SDS011;11536;50.860;4.286;2024-01-16T14:53:37;8.02;;;1.90;;
22737;SDS011;11536;50.860;4.286;2024-01-16T14:56:02;9.38;;;2.33;;
22737;SDS011;11536;50.860;4.286;2024-01-16T14:58:30;5.60;;;1.95;;
22737;SDS011;11536;50.860;4.286;2024-01-16T15:00:56;6.47;;;1.90;;
22737;SDS011;11536;50.860;4.286;2024-01-16T15:03:22;6.07;;;1.98;;
22737;SDS011;11536;50.860;4.286;2024-01-16T15:05:48;7.13;;;2.35;;